Olivet, Iowa
Current Conditions -  °F | °C
As of 2:15 PM on Thursday 29 Jan 2015 (Local Time) from KPEA Reporting Station
Broken Clouds Broken Clouds  
Wind Chill: 23°   Ceiling: 2400
Heat Index: 35°   Visibility: 10mi
Dew Point: 27°   Wind: 23mph
Humidity: 73%   Direction: 330°NNW
Pressure: 30.29"   Gusts: 32mph
Location:  41.3761°N, 92.8159°W
Report Text: KPEA 292015Z AUTO 33020G28KT 10SM BKN024 02/M03 A3029 RMK AO2 T00171026
Loading
Personal Weather Stations






























Interactive Weather Map New forecast layout! Learn more

10-Day Weather Forecast

Advertisements
Track Severe Weather on mobile